This is the latest recevied weather packets stored in our database for station/object K5NWZ. If no packets are shown the sender has not sent any weather packets the latest 10 day(s).
| Time | Temp. | Humidity | Pressure | Rain* | Wind** | Luminosity | Snow |
|---|---|---|---|---|---|---|---|
| 1787407154 | 22.22° C | 62% | 1033.3 hPa | 0 mm | - | 176 W/m² | - |
| 1787406850 | 21.67° C | 62% | 1033.3 hPa | 0 mm | - | 163 W/m² | - |
| 1787406545 | 21.67° C | 64% | 1033.6 hPa | 0 mm | - | 149 W/m² | - |
| 1787406242 | 21.11° C | 64% | 1033.2 hPa | 0 mm | - | 138 W/m² | - |
| 1787405937 | 22.78° C | 62% | 1033.3 hPa | 0 mm | - | 124 W/m² | - |
| 1787405634 | 21.67° C | 65% | 1033.3 hPa | 0 mm | - | 112 W/m² | - |
| 1787405334 | 20.56° C | 70% | 1033.4 hPa | 0 mm | - | 100 W/m² | - |
| 1787405030 | 19.44° C | 74% | 1033.3 hPa | 0 mm | - | 92 W/m² | - |
| 1787404726 | 18.89° C | 76% | 1033.3 hPa | 0 mm | - | 77 W/m² | - |
| 1787404424 | 17.78° C | 78% | 1033.3 hPa | 0 mm | - | 54 W/m² | - |
| 1787404120 | 17.78° C | 79% | 1033.3 hPa | 0 mm | - | 36 W/m² | - |
| 1787403815 | 17.22° C | 81% | 1033.1 hPa | 0 mm | - | 29 W/m² | - |
| 1787403515 | 17.22° C | 81% | 1033.1 hPa | 0 mm | - | 28 W/m² | - |
| 1787403210 | 16.67° C | 81% | 1033.2 hPa | 0 mm | - | 24 W/m² | - |
| 1787402906 | 16.67° C | 82% | 1033.3 hPa | 0 mm | - | 21 W/m² | - |
| 1787402602 | 16.67° C | 83% | 1033.3 hPa | 0 mm | - | 18 W/m² | - |
| 1787402295 | 16.67° C | 82% | 1032.9 hPa | 0 mm | - | 13 W/m² | - |
| 1787401991 | 16.67° C | 82% | 1033.1 hPa | 0 mm | - | 11 W/m² | - |
| 1787401686 | 16.67° C | 82% | 1032.9 hPa | 0 mm | - | 6 W/m² | - |
| 1787401383 | 16.67° C | 82% | 1032.9 hPa | 0 mm | - | 6 W/m² | - |
| 1787401077 | 16.67° C | 83% | 1032.7 hPa | 0 mm | - | 3 W/m² | - |
| 1787400773 | 16.67° C | 85% | 1033 hPa | 0 mm | - | 2 W/m² | - |
| 1787400472 | 16.67° C | 85% | 1032.7 hPa | 0 mm | - | 1 W/m² | - |
| 1787400169 | 17.22° C | 84% | 1032.7 hPa | 0 mm | - | 0 W/m² | - |
| 1787399865 | 17.22° C | 84% | 1032.7 hPa | 0 mm | - | 0 W/m² | - |
* Rain latest hour (hover to see other rain measurements)
** Current wind speed in m/s (hover to see current wind gust speed)